createdAt,value
2018-03-28T10:02:58.419Z,11.20
2018-03-28T10:05:40.339Z,10.70
2018-03-28T10:08:08.823Z,10.60
2018-03-28T10:40:32.559Z,10.80
2018-03-28T10:43:02.037Z,10.70
2018-03-28T10:48:00.890Z,10.80
2018-03-28T10:57:57.903Z,10.60
2018-03-28T11:02:55.875Z,10.80
2018-03-28T11:05:24.352Z,10.70
2018-03-28T11:07:52.839Z,10.90
2018-03-28T11:10:22.068Z,10.80
2018-03-28T11:12:50.560Z,10.90
2018-03-28T11:15:19.034Z,11.00
2018-03-28T11:17:48.002Z,11.10
2018-03-28T11:20:16.491Z,11.10
2018-03-28T11:22:45.733Z,11.20
2018-03-28T11:40:12.895Z,11.20
2018-03-28T11:42:41.430Z,11.20
2018-03-28T11:45:10.695Z,11.40
2018-03-28T11:52:38.387Z,11.30
2018-03-28T11:55:06.915Z,11.30
2018-03-28T11:57:36.202Z,11.30
2018-03-28T12:00:04.056Z,11.30
2018-03-28T12:02:32.528Z,11.60
2018-03-28T12:42:24.283Z,11.50
2018-03-28T12:44:53.686Z,11.50
2018-03-28T12:47:22.988Z,11.50
2018-03-28T13:04:50.107Z,11.50
2018-03-28T13:12:17.616Z,11.60
2018-03-28T13:14:46.138Z,11.50
2018-03-28T13:17:14.624Z,11.60
2018-03-28T13:24:41.984Z,11.60
2018-03-28T13:27:10.492Z,11.50
2018-03-28T13:29:38.959Z,11.60
2018-03-28T13:32:08.204Z,11.90
2018-03-28T13:34:36.988Z,11.80
2018-03-28T13:37:05.490Z,11.60
2018-03-28T13:39:33.972Z,11.60
2018-03-28T13:42:02.650Z,11.60
2018-03-28T13:44:31.150Z,11.50
2018-03-28T13:46:59.635Z,11.50
2018-03-28T13:49:28.191Z,11.40
2018-03-28T13:51:57.865Z,11.20
2018-03-28T13:54:27.126Z,11.00
2018-03-28T13:59:25.155Z,10.80
2018-03-28T14:01:54.409Z,10.50
2018-03-28T14:04:22.918Z,10.50
2018-03-28T14:06:51.412Z,10.50
2018-03-28T14:09:20.810Z,10.30
2018-03-28T14:11:49.332Z,10.20
2018-03-28T14:14:17.834Z,10.20
2018-03-28T14:16:46.380Z,10.20
2018-03-28T14:19:16.525Z,10.20
2018-03-28T14:21:45.045Z,10.20
2018-03-28T14:24:13.691Z,10.10
2018-03-28T14:26:42.188Z,10.10
2018-03-28T16:48:42.740Z,9.40
2018-03-28T21:00:23.760Z,8.40
2018-03-28T21:02:52.658Z,8.30
2018-03-28T21:05:21.762Z,8.30
2018-03-28T21:15:20.150Z,8.10
2018-03-28T21:20:18.619Z,8.10
2018-03-28T21:22:47.217Z,8.10
2018-03-28T22:12:36.615Z,7.90
2018-03-28T22:20:03.850Z,7.80
2018-03-28T22:22:32.314Z,7.70
2018-03-28T22:25:00.792Z,7.60
2018-03-28T22:27:29.295Z,7.60
2018-03-28T22:29:57.813Z,7.50
2018-03-28T22:32:26.477Z,7.50
2018-03-28T22:37:25.375Z,7.40
2018-03-28T22:39:53.930Z,7.30
2018-03-28T22:42:22.423Z,7.30
2018-03-28T22:47:20.378Z,7.10
2018-03-28T22:49:49.273Z,7.00
2018-03-28T22:52:18.147Z,6.90
2018-03-28T22:54:47.134Z,6.80
2018-03-28T22:57:16.023Z,6.70
2018-03-28T22:59:45.246Z,6.60
2018-03-28T23:12:11.916Z,6.20
2018-03-28T23:14:40.543Z,6.10
2018-03-28T23:17:09.791Z,6.00
2018-03-28T23:22:08.292Z,6.00
2018-03-28T23:29:36.492Z,5.90
2018-03-28T23:32:05.741Z,5.80
